Time;durP1;ratioP1;P1;durP2;ratioP2;P2;SDS_P1;SDS_P2;PMS_P1;PMS_P2;Temp;Humidity;BMP_temperature;BMP_pressure;BME280_temperature;BME280_humidity;BME280_pressure;Samples;Min_cycle;Max_cycle;Signal;HPM_P1;HPM_P2
2022/08/11 00:00:37;;;;;;;8.68;5.95;;;17.80;99.90;;;;;;4986614;28;20057;-90
2022/08/11 00:03:09;;;;;;;8.82;5.10;;;17.80;99.90;;;;;;4984085;28;20057;-90
2022/08/11 00:05:50;;;;;;;8.38;5.72;;;17.70;99.90;;;;;;4984852;28;20046;-89
2022/08/11 00:08:28;;;;;;;9.73;5.90;;;17.70;99.90;;;;;;4986518;28;20088;-91
2022/08/11 00:10:57;;;;;;;11.15;6.47;;;17.70;99.90;;;;;;4982290;28;20385;-90
2022/08/11 00:13:34;;;;;;;9.40;6.00;;;17.80;99.90;;;;;;4985954;28;20092;-91
2022/08/11 00:16:01;;;;;;;9.30;5.97;;;17.70;99.90;;;;;;4964026;28;20042;-89
2022/08/11 00:18:29;;;;;;;8.25;5.90;;;17.60;99.90;;;;;;4985185;28;20047;-90
2022/08/11 00:20:59;;;;;;;9.15;6.20;;;17.60;99.90;;;;;;4986021;28;20065;-90
2022/08/11 00:23:26;;;;;;;9.60;5.80;;;17.60;99.90;;;;;;4984734;28;20050;-90
2022/08/11 00:25:53;;;;;;;9.55;6.68;;;17.60;99.90;;;;;;4984520;28;20392;-90
2022/08/11 00:28:31;;;;;;;10.48;6.70;;;17.50;99.90;;;;;;4987614;28;20061;-89
2022/08/11 00:31:01;;;;;;;10.32;7.00;;;17.60;99.90;;;;;;4984430;28;20062;-90
2022/08/11 00:33:38;;;;;;;9.88;6.72;;;17.60;99.90;;;;;;4988958;28;20076;-89
2022/08/11 00:36:07;;;;;;;10.70;6.65;;;17.50;99.90;;;;;;4988026;28;20371;-89
2022/08/11 00:38:38;;;;;;;9.38;6.50;;;17.50;99.90;;;;;;4989337;28;20502;-88
2022/08/11 00:41:56;;;;;;;10.13;6.25;;;17.50;99.90;;;;;;4987655;28;20151;-89
2022/08/11 00:44:27;;;;;;;9.73;6.25;;;17.50;99.90;;;;;;4944036;28;20146;-89
2022/08/11 00:47:21;;;;;;;8.70;6.30;;;17.40;99.90;;;;;;4951684;28;20448;-89
2022/08/11 00:50:17;;;;;;;9.85;6.53;;;17.40;99.90;;;;;;4966538;28;20396;-89
2022/08/11 00:53:25;;;;;;;8.77;6.50;;;17.40;99.90;;;;;;4952220;28;20054;-90
2022/08/11 00:56:17;;;;;;;10.38;6.55;;;17.30;99.90;;;;;;4954296;28;20134;-89
2022/08/11 00:59:03;;;;;;;10.95;6.85;;;17.20;99.90;;;;;;4951818;28;20046;-90
2022/08/11 01:02:03;;;;;;;9.35;6.88;;;17.20;99.90;;;;;;4935290;28;20058;-90
2022/08/11 01:04:57;;;;;;;11.33;7.40;;;17.10;99.90;;;;;;4944686;28;20059;-89
2022/08/11 01:07:50;;;;;;;8.57;6.43;;;17.10;99.90;;;;;;4951865;28;20171;-89
2022/08/11 01:10:40;;;;;;;9.38;6.88;;;17.00;99.90;;;;;;4964064;28;20086;-89
2022/08/11 01:13:29;;;;;;;9.90;6.45;;;17.00;99.90;;;;;;4951236;28;20141;-88
2022/08/11 01:16:13;;;;;;;9.68;7.05;;;17.10;99.90;;;;;;4948793;28;20078;-90
2022/08/11 01:19:03;;;;;;;10.77;7.18;;;17.00;99.90;;;;;;4952186;28;20085;-89
2022/08/11 01:21:51;;;;;;;9.85;7.03;;;17.00;99.90;;;;;;4977206;28;20050;-88
2022/08/11 01:24:56;;;;;;;9.55;7.28;;;17.00;99.90;;;;;;4990093;28;20080;-90
2022/08/11 01:28:00;;;;;;;9.18;7.13;;;17.00;99.90;;;;;;4988205;28;20085;-88
2022/08/11 01:30:48;;;;;;;10.75;6.88;;;16.90;99.90;;;;;;4984445;28;20133;-90
2022/08/11 01:33:33;;;;;;;10.27;6.97;;;16.90;99.90;;;;;;4953605;28;20058;-89
2022/08/11 01:36:34;;;;;;;10.43;6.80;;;16.90;99.90;;;;;;4986748;28;20051;-89
2022/08/11 01:39:30;;;;;;;9.88;7.18;;;17.00;99.90;;;;;;4986490;28;20495;-90
2022/08/11 01:45:06;;;;;;;9.52;6.88;;;16.90;99.90;;;;;;4985515;28;20062;-91
2022/08/11 01:47:50;;;;;;;10.32;7.25;;;16.90;99.90;;;;;;4987920;28;20423;-91
2022/08/11 01:50:26;;;;;;;10.02;7.40;;;16.80;99.90;;;;;;4970155;28;20089;-91
2022/08/11 01:53:20;;;;;;;10.80;7.25;;;16.80;99.90;;;;;;4986771;28;20065;-90
2022/08/11 01:56:04;;;;;;;10.02;7.70;;;16.70;99.90;;;;;;4987798;28;20403;-90
2022/08/11 01:58:53;;;;;;;11.38;7.57;;;16.70;99.90;;;;;;4987392;28;20053;-90
2022/08/11 02:01:26;;;;;;;10.68;8.15;;;16.70;99.90;;;;;;4971494;28;20105;-93
2022/08/11 02:03:59;;;;;;;11.85;8.20;;;16.60;99.90;;;;;;4968055;28;20057;-91
2022/08/11 02:11:29;;;;;;;10.35;7.85;;;16.60;99.90;;;;;;4985798;28;20050;-91
2022/08/11 02:12:59;;;;;;;11.27;8.65;;;16.60;99.90;;;;;;4987036;28;20514;-91
2022/08/11 02:15:35;;;;;;;11.27;8.40;;;16.50;99.90;;;;;;4984328;28;20407;-90
2022/08/11 02:23:38;;;;;;;11.75;8.95;;;16.50;99.90;;;;;;4970370;28;20439;-90
2022/08/11 02:24:23;;;;;;;12.65;8.93;;;16.50;99.90;;;;;;4984708;28;20077;-90
2022/08/11 02:27:06;;;;;;;11.23;8.75;;;16.50;99.90;;;;;;4986007;28;20046;-89
2022/08/11 02:30:06;;;;;;;11.25;8.70;;;16.50;99.90;;;;;;4986800;28;20054;-90
2022/08/11 02:35:57;;;;;;;11.23;9.07;;;16.40;99.90;;;;;;4991408;28;20070;-90
2022/08/11 02:38:50;;;;;;;12.88;9.45;;;16.40;99.90;;;;;;4970212;28;20062;-91
2022/08/11 02:44:35;;;;;;;10.95;9.02;;;16.40;99.90;;;;;;4985744;28;20050;-91
2022/08/11 02:47:16;;;;;;;11.27;9.00;;;16.30;99.90;;;;;;4987925;28;20054;-90
2022/08/11 02:50:00;;;;;;;12.65;9.98;;;16.30;99.90;;;;;;4988756;28;20050;-92
2022/08/11 02:52:33;;;;;;;13.05;9.63;;;16.30;99.90;;;;;;4987353;28;20113;-90
2022/08/11 02:55:30;;;;;;;13.23;9.60;;;16.30;99.90;;;;;;4985616;28;20082;-90
2022/08/11 02:58:09;;;;;;;13.20;9.68;;;16.30;99.90;;;;;;4986615;28;20035;-91
2022/08/11 03:00:52;;;;;;;12.93;9.88;;;16.20;99.90;;;;;;4986988;28;20042;-90
2022/08/11 03:03:42;;;;;;;11.48;9.60;;;16.20;99.90;;;;;;4984075;28;20046;-90
2022/08/11 03:06:18;;;;;;;12.68;10.50;;;16.20;99.90;;;;;;4965834;28;20050;-90
2022/08/11 03:09:02;;;;;;;14.45;10.27;;;16.20;99.90;;;;;;4987510;28;20049;-90
2022/08/11 03:18:01;;;;;;;13.35;11.05;;;16.10;99.90;;;;;;4989106;28;20047;-90
2022/08/11 03:20:43;;;;;;;13.93;11.13;;;16.10;99.90;;;;;;4986977;28;20504;-91
2022/08/11 03:23:43;;;;;;;12.70;10.57;;;16.00;99.90;;;;;;4971979;28;20055;-91
2022/08/11 03:26:43;;;;;;;14.75;11.45;;;16.10;99.90;;;;;;4987032;28;20495;-91
2022/08/11 03:29:41;;;;;;;12.57;10.90;;;16.00;99.90;;;;;;4987612;28;20404;-92
2022/08/11 03:32:20;;;;;;;13.95;12.20;;;16.00;99.90;;;;;;4979144;28;20090;-91
2022/08/11 03:34:49;;;;;;;13.68;11.20;;;16.00;99.90;;;;;;4985839;28;20344;-91
2022/08/11 03:37:50;;;;;;;14.57;11.68;;;16.00;99.90;;;;;;4966463;28;20042;-91
2022/08/11 03:43:53;;;;;;;13.10;11.20;;;15.90;99.90;;;;;;4985490;28;19968;-92
2022/08/11 03:46:26;;;;;;;13.88;11.90;;;15.80;99.90;;;;;;4987474;28;20057;-91
2022/08/11 03:49:07;;;;;;;16.10;12.48;;;15.80;99.90;;;;;;4985489;28;20518;-93
2022/08/11 03:51:54;;;;;;;16.73;12.73;;;15.80;99.90;;;;;;4987664;28;20047;-90
2022/08/11 03:54:49;;;;;;;14.90;12.10;;;15.80;99.90;;;;;;4990338;28;20050;-91
2022/08/11 03:57:44;;;;;;;15.98;13.10;;;15.80;99.90;;;;;;4989318;28;20062;-91
2022/08/11 04:00:28;;;;;;;15.50;12.43;;;15.70;99.90;;;;;;4988534;28;20407;-91
2022/08/11 04:03:25;;;;;;;14.00;12.50;;;15.70;99.90;;;;;;4988079;28;20133;-92
2022/08/11 04:06:10;;;;;;;14.30;12.73;;;15.70;99.90;;;;;;4986997;28;20061;-92
2022/08/11 04:09:45;;;;;;;15.98;12.75;;;15.60;99.90;;;;;;4989300;28;20057;-92
2022/08/11 04:12:35;;;;;;;15.27;12.93;;;15.70;99.90;;;;;;4970374;28;20057;-91
2022/08/11 04:18:43;;;;;;;17.73;14.00;;;15.70;99.90;;;;;;4971663;28;20129;-91
2022/08/11 04:21:33;;;;;;;16.08;13.38;;;15.70;99.90;;;;;;4983704;28;20128;-91
2022/08/11 04:24:30;;;;;;;14.80;12.67;;;15.70;99.90;;;;;;4982348;28;20407;-93
2022/08/11 04:27:32;;;;;;;15.98;14.25;;;15.70;99.90;;;;;;4985905;28;20321;-91
2022/08/11 04:30:17;;;;;;;15.15;13.48;;;15.70;99.90;;;;;;4983625;28;20062;-93
2022/08/11 04:32:57;;;;;;;16.73;14.07;;;15.70;99.90;;;;;;4969514;28;20058;-90
2022/08/11 04:35:42;;;;;;;20.00;15.00;;;15.70;99.90;;;;;;4970054;28;20050;-89
2022/08/11 04:38:32;;;;;;;15.80;14.10;;;15.80;99.90;;;;;;4975624;28;20042;-90
2022/08/11 04:41:19;;;;;;;17.40;14.60;;;15.80;99.90;;;;;;4986083;28;20042;-89
2022/08/11 04:44:00;;;;;;;16.77;15.05;;;15.90;99.90;;;;;;4985439;28;20150;-91
2022/08/11 04:46:54;;;;;;;16.58;14.32;;;15.90;99.90;;;;;;4982046;28;20062;-91
2022/08/11 05:01:51;;;;;;;16.05;14.13;;;16.10;99.90;;;;;;4985630;28;20050;-90
2022/08/11 05:07:32;;;;;;;15.20;13.45;;;16.30;99.90;;;;;;4986551;28;20157;-89
2022/08/11 05:10:15;;;;;;;16.55;14.00;;;16.30;99.90;;;;;;4984432;28;20050;-90
2022/08/11 05:12:47;;;;;;;16.23;13.82;;;16.40;99.90;;;;;;4985125;28;20110;-91
2022/08/11 05:35:30;;;;;;;16.08;13.45;;;17.00;99.90;;;;;;4987433;28;20053;-89
2022/08/11 05:57:32;;;;;;;17.10;13.00;;;17.70;99.90;;;;;;4985186;28;20399;-90
2022/08/11 06:00:09;;;;;;;14.55;12.77;;;17.90;99.90;;;;;;4970045;28;20054;-91
2022/08/11 06:02:49;;;;;;;14.52;12.65;;;18.00;99.90;;;;;;4986759;28;20046;-91
2022/08/11 06:05:15;;;;;;;14.52;11.40;;;18.10;99.90;;;;;;4987294;28;20051;-90
2022/08/11 06:07:41;;;;;;;15.38;12.05;;;18.20;99.90;;;;;;4988027;28;20591;-92
2022/08/11 06:10:08;;;;;;;15.43;11.73;;;18.30;99.90;;;;;;4987770;28;20046;-89
2022/08/11 06:12:36;;;;;;;12.57;11.02;;;18.50;99.90;;;;;;4987303;28;20054;-92
2022/08/11 06:15:11;;;;;;;13.02;11.23;;;18.70;99.90;;;;;;4985623;28;20054;-89
2022/08/11 06:17:45;;;;;;;13.80;11.20;;;18.70;99.90;;;;;;4971892;28;20053;-91
2022/08/11 06:20:13;;;;;;;13.85;11.30;;;18.80;99.90;;;;;;4987489;28;20057;-88
2022/08/11 06:22:42;;;;;;;12.45;10.55;;;18.80;99.90;;;;;;4987216;28;20046;-91
2022/08/11 06:25:10;;;;;;;13.95;10.98;;;18.90;99.90;;;;;;4971091;28;20671;-91
2022/08/11 06:27:37;;;;;;;12.65;10.60;;;19.00;99.90;;;;;;4987077;28;20038;-86
2022/08/11 06:30:12;;;;;;;13.57;10.25;;;19.10;99.90;;;;;;4985575;28;20058;-93
2022/08/11 06:32:56;;;;;;;12.60;10.52;;;19.20;99.90;;;;;;4968388;28;20055;-89
2022/08/11 06:35:37;;;;;;;13.38;10.80;;;19.30;99.90;;;;;;4986975;28;20418;-91
2022/08/11 06:38:25;;;;;;;13.27;10.23;;;19.40;99.90;;;;;;4986730;28;20141;-87
2022/08/11 06:43:53;;;;;;;12.65;10.55;;;19.50;99.90;;;;;;4986032;28;20051;-93
2022/08/11 06:46:37;;;;;;;13.32;9.93;;;19.60;99.90;;;;;;4983299;28;20046;-92
2022/08/11 06:51:10;;;;;;;11.50;8.35;;;19.60;99.90;;;;;;4970697;28;20050;-90
2022/08/11 06:52:00;;;;;;;10.88;8.35;;;19.80;99.90;;;;;;4987079;28;20050;-89
2022/08/11 06:54:28;;;;;;;11.50;8.85;;;19.90;99.90;;;;;;4967030;28;20058;-90
2022/08/11 07:02:34;;;;;;;9.85;7.00;;;20.20;99.90;;;;;;4987894;28;20050;-91
2022/08/11 07:05:07;;;;;;;8.93;5.80;;;20.30;99.90;;;;;;4985853;28;20078;-90
2022/08/11 07:16:50;;;;;;;9.20;6.18;;;20.90;99.90;;;;;;4984985;28;20133;-91
2022/08/11 07:31:00;;;;;;;6.80;3.92;;;21.50;99.90;;;;;;4984392;28;20058;-88
2022/08/11 07:33:33;;;;;;;7.53;3.92;;;21.60;99.90;;;;;;4969840;28;20038;-92
2022/08/11 07:36:02;;;;;;;7.00;3.55;;;21.80;99.90;;;;;;4985785;28;20408;-89
2022/08/11 07:38:44;;;;;;;7.57;3.40;;;21.90;99.90;;;;;;4987417;28;20042;-89
2022/08/11 07:41:15;;;;;;;11.13;3.53;;;22.00;99.90;;;;;;4983334;28;20097;-88
2022/08/11 07:43:43;;;;;;;6.82;3.00;;;22.10;99.90;;;;;;4969727;28;20054;-89
2022/08/11 07:54:27;;;;;;;6.13;2.60;;;22.50;99.90;;;;;;4984061;28;20053;-89
2022/08/11 07:56:53;;;;;;;6.82;2.63;;;22.60;99.90;;;;;;4968306;28;20050;-91
2022/08/11 08:18:38;;;;;;;6.50;2.38;;;23.30;99.90;;;;;;4982103;28;20059;-89
2022/08/11 08:21:10;;;;;;;7.53;2.00;;;23.30;99.90;;;;;;4985829;28;20430;-92
2022/08/11 08:23:38;;;;;;;5.57;2.22;;;23.40;99.90;;;;;;4985410;28;20066;-92
2022/08/11 08:26:57;;;;;;;3.80;1.85;;;23.50;99.90;;;;;;4980205;28;20046;-87
2022/08/11 08:30:46;;;;;;;5.00;1.88;;;23.60;99.90;;;;;;4983405;28;20538;-91
2022/08/11 08:31:47;;;;;;;4.25;2.10;;;23.70;99.90;;;;;;4983633;28;20065;-90
2022/08/11 08:34:14;;;;;;;5.18;1.80;;;23.80;99.90;;;;;;4984849;28;20054;-89
2022/08/11 08:36:46;;;;;;;5.60;1.98;;;23.90;99.90;;;;;;4986324;28;20054;-88
2022/08/11 08:39:12;;;;;;;4.90;1.98;;;23.90;99.90;;;;;;4966734;28;20096;-86
2022/08/11 08:41:39;;;;;;;5.85;1.90;;;24.00;99.90;;;;;;4985209;28;20078;-87
2022/08/11 08:44:11;;;;;;;4.65;1.75;;;24.20;99.90;;;;;;4967878;28;20054;-90
2022/08/11 08:46:42;;;;;;;4.00;1.80;;;24.20;99.90;;;;;;4985150;28;20086;-89
2022/08/11 08:49:13;;;;;;;7.22;2.00;;;24.40;99.90;;;;;;4964210;28;20100;-87
2022/08/11 08:51:40;;;;;;;5.25;1.80;;;24.50;99.90;;;;;;4986388;28;20070;-90
2022/08/11 08:54:21;;;;;;;4.22;1.90;;;24.50;99.90;;;;;;4985927;28;20103;-91
2022/08/11 08:56:47;;;;;;;;;;;24.60;99.90;;;;;;4990328;28;20097;-89
2022/08/11 08:59:15;;;;;;;5.50;1.85;;;24.50;99.90;;;;;;4989261;28;20282;-88
2022/08/11 09:01:56;;;;;;;4.70;1.90;;;24.60;99.90;;;;;;4988053;28;20055;-88
2022/08/11 09:04:23;;;;;;;4.30;1.77;;;24.70;99.90;;;;;;4990255;28;20088;-89
2022/08/11 09:06:49;;;;;;;5.10;1.90;;;24.90;99.90;;;;;;4971627;28;20034;-87
2022/08/11 09:09:16;;;;;;;5.35;1.90;;;25.00;99.90;;;;;;4989109;28;20046;-87
2022/08/11 09:11:49;;;;;;;4.13;1.70;;;25.00;99.40;;;;;;4988666;28;20398;-88
2022/08/11 09:14:23;;;;;;;4.10;2.00;;;25.10;98.30;;;;;;4989839;28;20081;-88
2022/08/11 09:16:51;;;;;;;5.68;1.85;;;25.20;97.90;;;;;;4985407;28;20042;-87
2022/08/11 09:19:19;;;;;;;6.68;2.20;;;25.30;96.60;;;;;;4988213;28;20055;-90
2022/08/11 09:27:20;;;;;;;6.35;2.50;;;25.60;96.10;;;;;;4989588;28;20419;-90
2022/08/11 09:29:46;;;;;;;7.03;2.53;;;25.60;95.40;;;;;;4988835;28;20411;-87
2022/08/11 09:32:13;;;;;;;5.30;2.45;;;25.60;94.70;;;;;;4989056;28;20042;-87
2022/08/11 09:34:39;;;;;;;6.32;2.88;;;25.70;95.40;;;;;;4972909;28;20057;-91
2022/08/11 09:45:20;;;;;;;6.22;2.30;;;25.80;93.30;;;;;;4985885;28;20076;-92
2022/08/11 09:47:47;;;;;;;5.00;2.20;;;25.90;93.00;;;;;;4986861;28;20039;-90
2022/08/11 09:50:16;;;;;;;5.72;2.97;;;25.90;94.10;;;;;;4966819;28;20053;-91
2022/08/11 09:52:44;;;;;;;5.72;2.30;;;25.90;94.80;;;;;;4986877;28;20054;-91
2022/08/11 09:55:13;;;;;;;6.15;2.40;;;25.80;94.50;;;;;;4986934;28;20055;-87
2022/08/11 10:00:36;;;;;;;5.25;2.22;;;26.00;92.50;;;;;;4988978;28;20054;-89
2022/08/11 10:03:06;;;;;;;4.60;2.25;;;26.10;91.80;;;;;;4985661;28;20053;-89
2022/08/11 10:08:21;;;;;;;7.05;2.55;;;26.10;91.90;;;;;;4985123;28;20058;-88
2022/08/11 10:10:48;;;;;;;4.68;2.40;;;26.10;88.90;;;;;;4988432;28;20054;-90
2022/08/11 10:13:24;;;;;;;5.38;2.38;;;26.30;87.00;;;;;;4988240;28;20101;-87
2022/08/11 10:15:55;;;;;;;7.30;2.25;;;26.20;89.50;;;;;;4986457;28;20052;-89
2022/08/11 10:18:48;;;;;;;5.40;2.20;;;26.30;90.50;;;;;;4987766;28;20046;-88
2022/08/11 10:21:35;;;;;;;5.55;2.20;;;26.30;90.60;;;;;;4985358;28;20102;-91
2022/08/11 10:26:53;;;;;;;5.35;2.20;;;26.40;90.60;;;;;;4984632;28;20054;-89
2022/08/11 10:35:13;;;;;;;5.55;2.28;;;26.50;90.10;;;;;;4987564;28;20054;-88
2022/08/11 10:37:41;;;;;;;7.60;2.30;;;26.40;90.10;;;;;;4988075;28;20417;-90
2022/08/11 10:40:09;;;;;;;5.50;2.22;;;26.50;90.70;;;;;;4988764;28;20170;-87
2022/08/11 10:48:06;;;;;;;6.03;2.20;;;26.60;88.90;;;;;;4984819;28;20098;-89
2022/08/11 10:58:48;;;;;;;6.97;2.20;;;26.70;88.80;;;;;;4986181;28;20054;-88
2022/08/11 11:01:26;;;;;;;6.90;1.98;;;26.70;86.20;;;;;;4986916;28;20386;-86
2022/08/11 11:04:00;;;;;;;4.13;2.00;;;26.70;87.10;;;;;;4984766;28;20128;-88
2022/08/11 11:06:54;;;;;;;4.53;2.00;;;26.70;86.10;;;;;;4967078;28;20047;-91
2022/08/11 11:09:40;;;;;;;5.47;2.03;;;26.70;85.70;;;;;;4983157;28;20052;-88
2022/08/11 11:18:00;;;;;;;3.58;1.67;;;26.90;79.70;;;;;;4984883;28;20483;-88
2022/08/11 11:20:37;;;;;;;4.63;1.90;;;26.90;77.10;;;;;;4984209;28;20046;-86
2022/08/11 11:23:05;;;;;;;5.63;2.15;;;26.90;78.90;;;;;;4986455;28;20042;-88
2022/08/11 11:26:05;;;;;;;3.90;1.90;;;27.00;76.40;;;;;;4987146;28;20058;-87
2022/08/11 11:28:49;;;;;;;8.20;2.43;;;27.10;74.00;;;;;;4985302;28;20071;-88
2022/08/11 11:31:39;;;;;;;4.47;1.90;;;27.20;76.60;;;;;;4987098;28;20054;-89
2022/08/11 11:34:23;;;;;;;6.20;1.95;;;27.20;75.40;;;;;;4964954;28;20105;-86
2022/08/11 11:36:57;;;;;;;4.38;1.63;;;27.30;74.00;;;;;;4985778;28;20069;-85
2022/08/11 11:39:26;;;;;;;4.38;1.90;;;27.30;74.10;;;;;;4985286;28;20066;-89
2022/08/11 11:41:55;;;;;;;4.70;1.70;;;27.30;75.60;;;;;;4984663;28;20050;-87
2022/08/11 11:44:22;;;;;;;3.78;1.80;;;27.30;71.00;;;;;;4986359;28;20388;-90
2022/08/11 11:46:49;;;;;;;4.70;1.90;;;27.40;69.90;;;;;;4985350;28;20108;-89
2022/08/11 11:49:18;;;;;;;5.25;1.85;;;27.50;69.10;;;;;;4968585;28;20415;-87
2022/08/11 11:51:45;;;;;;;4.82;1.85;;;27.40;69.60;;;;;;4984425;28;20050;-89
2022/08/11 11:54:16;;;;;;;5.47;2.00;;;27.40;70.30;;;;;;4986543;28;20125;-89
2022/08/11 11:56:44;;;;;;;4.72;1.90;;;27.40;71.70;;;;;;4987120;28;20051;-89
2022/08/11 12:02:14;;;;;;;4.82;1.98;;;27.50;69.30;;;;;;4938953;28;20051;-86
2022/08/11 12:04:43;;;;;;;4.05;1.83;;;27.50;67.50;;;;;;4961862;28;20493;-88
2022/08/11 12:09:55;;;;;;;4.57;1.88;;;27.60;66.60;;;;;;4931428;28;20097;-87
2022/08/11 12:15:07;;;;;;;5.35;2.00;;;27.70;66.60;;;;;;4956744;28;20059;-90
2022/08/11 12:17:35;;;;;;;6.78;2.17;;;27.70;66.80;;;;;;4931607;29;20055;-88
2022/08/11 12:20:01;;;;;;;5.35;1.98;;;27.70;68.10;;;;;;4929884;28;20055;-87
2022/08/11 12:27:57;;;;;;;5.03;2.10;;;27.70;68.00;;;;;;4959218;28;20051;-88
2022/08/11 12:30:23;;;;;;;5.03;2.17;;;27.80;67.90;;;;;;4960575;28;20062;-89
2022/08/11 12:32:50;;;;;;;5.72;1.95;;;27.80;68.30;;;;;;4966147;28;20492;-88
2022/08/11 12:35:16;;;;;;;3.97;1.70;;;27.80;69.20;;;;;;4945078;28;20054;-89
2022/08/11 12:37:48;;;;;;;3.42;1.90;;;27.80;66.40;;;;;;4971646;28;20407;-88
2022/08/11 12:45:57;;;;;;;5.25;1.90;;;27.80;67.20;;;;;;4988081;28;20050;-90
2022/08/11 12:54:12;;;;;;;5.00;1.77;;;27.80;66.10;;;;;;4988325;28;20087;-89
2022/08/11 13:05:06;;;;;;;5.20;1.90;;;28.10;65.40;;;;;;4987303;28;20468;-88
2022/08/11 13:07:32;;;;;;;4.53;1.85;;;28.10;65.20;;;;;;4989011;28;20463;-89
2022/08/11 13:10:01;;;;;;;5.03;1.88;;;28.20;64.20;;;;;;4987766;28;20042;-90
2022/08/11 13:12:47;;;;;;;4.70;1.70;;;28.20;63.50;;;;;;4988305;28;20038;-85
2022/08/11 13:15:20;;;;;;;4.35;1.98;;;28.10;62.90;;;;;;4986863;28;20403;-90
2022/08/11 13:17:49;;;;;;;4.07;1.65;;;28.20;61.80;;;;;;4985779;28;20372;-89
2022/08/11 13:20:19;;;;;;;4.35;1.77;;;28.20;60.80;;;;;;4988986;28;20627;-91
2022/08/11 13:22:48;;;;;;;5.07;1.70;;;28.30;60.90;;;;;;4989990;28;20468;-86
2022/08/11 13:25:17;;;;;;;5.15;1.92;;;28.30;61.10;;;;;;4989873;28;20049;-89
2022/08/11 13:27:47;;;;;;;5.95;1.75;;;28.30;62.90;;;;;;4988306;28;20053;-89
2022/08/11 13:33:00;;;;;;;3.50;1.73;;;28.30;62.30;;;;;;4986784;28;20058;-87
2022/08/11 13:35:29;;;;;;;4.75;1.73;;;28.30;62.50;;;;;;4988392;28;20043;-92
2022/08/11 13:37:56;;;;;;;4.95;1.90;;;28.30;62.30;;;;;;4988348;28;20415;-84
2022/08/11 13:40:23;;;;;;;3.50;2.00;;;28.20;62.40;;;;;;4988488;28;20050;-87
2022/08/11 13:42:49;;;;;;;3.90;1.90;;;28.30;62.60;;;;;;4987341;28;20604;-85
2022/08/11 13:45:15;;;;;;;4.70;1.63;;;28.20;62.30;;;;;;4988955;28;20088;-84
2022/08/11 13:47:41;;;;;;;5.47;1.98;;;28.30;62.40;;;;;;4988934;28;20467;-87
2022/08/11 13:50:11;;;;;;;4.28;1.60;;;28.40;61.30;;;;;;4987597;28;20216;-89
2022/08/11 13:52:40;;;;;;;6.00;2.13;;;28.40;62.40;;;;;;4989788;28;20080;-88
2022/08/11 13:55:09;;;;;;;6.05;1.90;;;28.40;60.50;;;;;;4970384;28;20053;-86
2022/08/11 13:57:35;;;;;;;5.57;2.03;;;28.40;61.50;;;;;;4988081;28;20057;-91
2022/08/11 14:00:09;;;;;;;5.57;1.92;;;28.30;61.90;;;;;;4986582;28;20623;-88
2022/08/11 14:02:38;;;;;;;6.68;1.98;;;28.50;61.80;;;;;;4987243;28;20133;-85
2022/08/11 14:05:10;;;;;;;5.93;1.70;;;28.40;61.60;;;;;;4982689;28;20101;-87
2022/08/11 14:07:40;;;;;;;4.30;1.80;;;28.50;61.90;;;;;;4971250;28;20051;-87
2022/08/11 14:10:10;;;;;;;6.60;2.00;;;28.60;62.60;;;;;;4985799;28;20125;-89
2022/08/11 14:15:33;;;;;;;4.57;1.90;;;28.70;61.70;;;;;;4986351;28;20523;-90
2022/08/11 14:18:21;;;;;;;5.60;2.03;;;28.70;62.60;;;;;;4969805;28;20053;-91
2022/08/11 14:23:43;;;;;;;4.47;1.77;;;28.70;61.60;;;;;;4985236;28;20042;-88
2022/08/11 14:26:22;;;;;;;5.65;1.90;;;28.60;62.20;;;;;;4970354;28;20837;-86
2022/08/11 14:28:52;;;;;;;4.03;2.08;;;28.70;61.20;;;;;;4984103;28;20081;-89
2022/08/11 14:31:18;;;;;;;5.23;2.00;;;28.80;61.90;;;;;;4987016;28;20050;-87
2022/08/11 14:33:45;;;;;;;6.47;1.90;;;28.70;62.00;;;;;;4969687;28;20333;-89
2022/08/11 14:36:12;;;;;;;5.57;1.92;;;28.70;61.50;;;;;;4984120;28;20039;-87
2022/08/11 14:38:39;;;;;;;6.68;2.10;;;28.60;61.80;;;;;;4992930;28;20054;-89
2022/08/11 14:49:22;;;;;;;5.00;1.75;;;28.80;59.30;;;;;;4985267;28;20053;-87
2022/08/11 14:51:48;;;;;;;5.28;2.00;;;28.70;60.40;;;;;;4985720;28;20075;-87
2022/08/11 14:57:02;;;;;;;4.80;1.92;;;28.90;61.60;;;;;;4983227;28;20054;-89
2022/08/11 14:59:29;;;;;;;7.20;2.13;;;28.80;61.40;;;;;;4970332;28;20069;-88
2022/08/11 15:04:39;;;;;;;6.55;2.03;;;28.80;60.70;;;;;;4985290;28;20058;-89
2022/08/11 15:07:05;;;;;;;4.97;1.83;;;28.80;60.90;;;;;;4985148;28;20423;-85
2022/08/11 15:09:31;;;;;;;3.65;1.65;;;28.80;59.90;;;;;;4985150;28;20125;-86
2022/08/11 15:12:07;;;;;;;4.80;1.70;;;28.80;59.00;;;;;;4985922;28;20082;-87
2022/08/11 15:17:20;;;;;;;5.20;1.70;;;28.80;59.10;;;;;;4985939;28;20468;-88
2022/08/11 15:25:16;;;;;;;5.82;1.77;;;28.70;59.60;;;;;;4982953;28;20058;-88
2022/08/11 15:38:54;;;;;;;3.65;1.50;;;28.80;59.70;;;;;;4985567;28;20050;-90
2022/08/11 15:47:00;;;;;;;6.97;1.98;;;28.80;59.20;;;;;;4986004;28;20459;-86
2022/08/11 15:49:33;;;;;;;5.43;1.67;;;28.80;58.60;;;;;;4984127;28;20414;-89
2022/08/11 15:52:07;;;;;;;4.35;1.70;;;28.80;59.00;;;;;;4985720;28;20092;-87
2022/08/11 15:54:37;;;;;;;4.30;1.80;;;28.80;59.80;;;;;;4985373;28;20042;-88
2022/08/11 15:57:04;;;;;;;4.85;1.67;;;28.80;59.70;;;;;;4985823;28;20402;-90
2022/08/11 16:05:13;;;;;;;3.50;1.70;;;28.90;60.50;;;;;;4982240;28;20058;-87
2022/08/11 16:07:41;;;;;;;5.18;1.60;;;28.80;60.30;;;;;;4986778;28;20042;-87
2022/08/11 16:10:20;;;;;;;2.97;1.67;;;28.80;60.30;;;;;;4985044;28;20068;-88
2022/08/11 16:18:39;;;;;;;3.30;1.70;;;28.80;58.80;;;;;;4987166;28;20054;-86
2022/08/11 16:21:13;;;;;;;4.20;1.58;;;28.70;58.60;;;;;;4985299;28;20050;-86
2022/08/11 16:23:41;;;;;;;4.38;1.60;;;28.70;59.50;;;;;;4987795;28;20086;-90
2022/08/11 16:26:08;;;;;;;4.75;1.88;;;28.70;60.00;;;;;;4969861;28;20034;-88
2022/08/11 16:28:37;;;;;;;6.97;1.85;;;28.80;59.40;;;;;;4985843;28;20054;-89
2022/08/11 16:31:09;;;;;;;6.97;1.88;;;28.80;60.00;;;;;;4985681;28;20907;-86
2022/08/11 16:33:40;;;;;;;4.57;1.60;;;28.70;59.90;;;;;;4987235;28;20046;-87
2022/08/11 16:39:07;;;;;;;4.38;1.60;;;28.60;60.90;;;;;;4928818;29;20059;-87
2022/08/11 16:47:10;;;;;;;5.05;1.90;;;28.50;60.30;;;;;;4944697;29;20055;-88
2022/08/11 16:49:42;;;;;;;4.50;1.75;;;28.50;60.60;;;;;;4945428;29;20070;-88
2022/08/11 16:52:10;;;;;;;7.25;1.80;;;28.40;61.00;;;;;;4943819;29;20047;-87
2022/08/11 16:54:37;;;;;;;4.93;2.00;;;28.50;61.80;;;;;;4945483;29;20070;-88
2022/08/11 16:59:53;;;;;;;3.63;1.73;;;28.40;63.80;;;;;;4929071;29;20047;-87
2022/08/11 17:14:00;;;;;;;3.70;1.67;;;28.00;67.60;;;;;;4918783;28;20556;-88
2022/08/11 17:16:34;;;;;;;3.83;1.67;;;28.00;67.40;;;;;;4985641;28;20181;-86
2022/08/11 17:19:05;;;;;;;8.68;2.03;;;28.00;67.80;;;;;;4988628;28;20133;-89
2022/08/11 17:24:35;;;;;;;6.05;2.13;;;27.90;69.40;;;;;;4989218;28;20112;-87
2022/08/11 17:27:04;;;;;;;4.03;1.75;;;27.80;69.80;;;;;;4987532;28;20096;-88
2022/08/11 17:29:38;;;;;;;7.18;2.10;;;27.80;70.10;;;;;;4988498;28;20121;-87
2022/08/11 17:37:46;;;;;;;5.22;1.90;;;27.70;70.30;;;;;;4987984;28;20101;-90
2022/08/11 17:40:23;;;;;;;4.65;2.00;;;27.60;70.90;;;;;;4988409;28;20042;-87
2022/08/11 17:48:31;;;;;;;4.78;2.40;;;27.50;72.50;;;;;;4988114;28;20121;-87
2022/08/11 17:59:52;;;;;;;4.65;1.90;;;27.30;74.80;;;;;;4986819;28;20046;-89
2022/08/11 18:05:20;;;;;;;5.82;2.30;;;27.20;76.50;;;;;;4987839;28;20184;-90
